createdAt,value
2024-05-09T00:00:45.785Z,65.35
2024-05-09T00:03:13.531Z,65.79
2024-05-09T00:05:41.930Z,66.06
2024-05-09T00:08:10.411Z,66.19
2024-05-09T00:10:39.595Z,66.20
2024-05-09T00:13:08.801Z,66.70
2024-05-09T00:15:36.523Z,66.52
2024-05-09T00:18:05.236Z,66.94
2024-05-09T00:20:38.447Z,67.02
2024-05-09T00:23:12.401Z,67.46
2024-05-09T00:25:42.994Z,67.61
2024-05-09T00:28:11.481Z,67.54
2024-05-09T00:30:38.359Z,67.25
2024-05-09T00:33:06.702Z,67.60
2024-05-09T00:35:34.797Z,67.72
2024-05-09T00:38:01.631Z,67.67
2024-05-09T00:40:39.552Z,68.13
2024-05-09T00:43:09.719Z,68.41
2024-05-09T00:45:36.443Z,68.29
2024-05-09T00:48:06.743Z,68.24
2024-05-09T00:50:37.565Z,68.07
2024-05-09T00:53:06.403Z,67.99
2024-05-09T00:55:35.035Z,67.75
2024-05-09T00:58:02.482Z,67.60
2024-05-09T01:00:37.771Z,68.01
2024-05-09T01:03:07.616Z,67.76
2024-05-09T01:05:35.330Z,67.59
2024-05-09T01:08:02.991Z,67.90
2024-05-09T01:10:34.527Z,68.05
2024-05-09T01:13:06.469Z,68.16
2024-05-09T01:15:34.639Z,68.24
2024-05-09T01:18:06.925Z,68.25
2024-05-09T01:20:41.073Z,68.48
2024-05-09T01:23:11.151Z,68.31
2024-05-09T01:25:38.268Z,67.98
2024-05-09T01:28:06.056Z,68.38
2024-05-09T01:30:35.901Z,68.29
2024-05-09T01:33:09.590Z,68.22
2024-05-09T01:35:40.871Z,68.52
2024-05-09T01:38:09.671Z,69.02
2024-05-09T01:40:39.237Z,68.95
2024-05-09T01:43:08.896Z,68.70
2024-05-09T01:45:36.670Z,68.64
2024-05-09T01:48:03.892Z,68.47
2024-05-09T01:50:38.360Z,68.95
2024-05-09T01:53:13.954Z,69.03
2024-05-09T01:55:41.514Z,68.92
2024-05-09T01:58:08.752Z,69.08
2024-05-09T02:00:40.337Z,69.38
2024-05-09T02:03:13.564Z,69.25
2024-05-09T02:05:43.762Z,69.54
2024-05-09T02:08:15.489Z,69.53
2024-05-09T02:10:44.112Z,69.32
2024-05-09T02:13:11.123Z,69.38
2024-05-09T02:15:38.062Z,69.22
2024-05-09T02:18:05.497Z,69.22
2024-05-09T02:20:36.272Z,69.73
2024-05-09T02:23:05.997Z,69.68
2024-05-09T02:25:33.249Z,69.45
2024-05-09T02:28:00.028Z,69.20
2024-05-09T02:30:37.715Z,70.21
2024-05-09T02:33:08.988Z,69.58
2024-05-09T02:35:36.615Z,70.09
2024-05-09T02:38:03.632Z,70.43
2024-05-09T02:40:36.751Z,70.14
2024-05-09T02:43:06.524Z,69.92
2024-05-09T02:45:33.544Z,69.98
2024-05-09T02:48:00.941Z,69.83
2024-05-09T02:50:34.619Z,70.23
2024-05-09T02:53:06.359Z,70.67
2024-05-09T02:55:33.936Z,70.86
2024-05-09T02:58:00.634Z,70.88
2024-05-09T03:00:36.309Z,70.99
2024-05-09T03:03:08.331Z,70.88
2024-05-09T03:05:36.506Z,70.46
2024-05-09T03:08:03.688Z,70.92
2024-05-09T03:10:35.882Z,70.64
2024-05-09T03:13:14.728Z,70.45
2024-05-09T03:15:43.086Z,70.82
2024-05-09T03:18:10.678Z,70.83
2024-05-09T03:20:38.052Z,70.98
2024-05-09T03:23:08.091Z,70.91
2024-05-09T03:25:35.874Z,70.90
2024-05-09T03:28:02.710Z,70.65
2024-05-09T03:30:36.381Z,70.97
2024-05-09T03:33:12.904Z,70.88
2024-05-09T03:35:40.902Z,70.99
2024-05-09T03:38:07.688Z,70.70
2024-05-09T03:40:34.449Z,71.18
2024-05-09T03:43:01.110Z,71.06
2024-05-09T03:45:27.838Z,71.00
2024-05-09T03:47:54.793Z,70.98
2024-05-09T03:50:29.856Z,70.83
2024-05-09T03:53:01.644Z,71.17
2024-05-09T03:55:28.570Z,71.03
2024-05-09T03:57:55.239Z,71.02
2024-05-09T04:00:30.915Z,70.79
2024-05-09T04:03:04.454Z,70.80
2024-05-09T04:05:32.659Z,70.86
2024-05-09T04:07:59.549Z,70.92
2024-05-09T04:10:32.827Z,70.75
2024-05-09T04:13:01.515Z,71.40
2024-05-09T04:15:28.248Z,71.23
2024-05-09T04:17:55.835Z,71.59
2024-05-09T04:20:33.405Z,71.54
2024-05-09T04:23:06.713Z,71.78
2024-05-09T04:25:33.969Z,71.79
2024-05-09T04:28:00.683Z,72.05
2024-05-09T04:30:36.365Z,72.00
2024-05-09T04:33:09.263Z,72.35
2024-05-09T04:35:38.406Z,72.30
2024-05-09T04:38:05.880Z,72.43
2024-05-09T04:40:35.804Z,72.46
2024-05-09T04:43:13.443Z,72.72
2024-05-09T04:45:40.582Z,72.94
2024-05-09T04:48:08.204Z,73.24
2024-05-09T04:50:38.320Z,73.45
2024-05-09T04:53:10.847Z,73.29
2024-05-09T04:55:39.043Z,73.89
2024-05-09T04:58:08.791Z,73.52
2024-05-09T05:00:38.655Z,73.58
2024-05-09T05:03:10.114Z,73.42
2024-05-09T05:05:42.545Z,73.77
2024-05-09T05:08:17.571Z,73.85
2024-05-09T05:10:45.836Z,73.57
2024-05-09T05:13:18.099Z,74.06
2024-05-09T05:15:49.774Z,73.98
2024-05-09T05:18:17.213Z,74.56
2024-05-09T05:20:44.353Z,74.54
2024-05-09T05:23:13.558Z,75.21
2024-05-09T05:25:41.281Z,75.41
2024-05-09T05:28:08.250Z,75.41
2024-05-09T05:30:37.580Z,76.30
2024-05-09T05:33:06.273Z,76.28
2024-05-09T05:35:34.361Z,76.74
2024-05-09T05:38:01.560Z,76.96
2024-05-09T05:40:36.170Z,76.88
2024-05-09T05:43:05.914Z,77.22
2024-05-09T05:45:32.903Z,76.53
2024-05-09T05:48:00.276Z,75.99
2024-05-09T05:50:32.986Z,75.64
2024-05-09T05:53:03.422Z,75.51
2024-05-09T05:55:30.256Z,75.28
2024-05-09T05:57:56.907Z,73.94
2024-05-09T06:00:29.960Z,73.87
2024-05-09T06:03:05.068Z,73.49
2024-05-09T06:05:32.512Z,73.13
2024-05-09T06:07:59.580Z,72.81
2024-05-09T06:10:34.844Z,72.33
2024-05-09T06:13:05.655Z,72.23
2024-05-09T06:15:32.346Z,72.09
2024-05-09T06:17:59.481Z,71.68
2024-05-09T06:20:34.518Z,70.86
2024-05-09T06:23:04.675Z,71.41
2024-05-09T06:25:31.768Z,70.75
2024-05-09T06:28:00.216Z,70.21
2024-05-09T06:30:36.539Z,70.35
2024-05-09T06:33:08.824Z,70.73
2024-05-09T06:35:36.985Z,70.46
2024-05-09T06:38:04.200Z,71.31
2024-05-09T06:40:37.248Z,71.18
2024-05-09T06:43:18.162Z,69.52
2024-05-09T06:45:50.444Z,68.52
2024-05-09T06:48:19.297Z,68.39
2024-05-09T06:50:46.955Z,69.21
2024-05-09T06:53:14.998Z,67.34
2024-05-09T06:55:41.916Z,66.84
2024-05-09T06:58:11.514Z,65.68
2024-05-09T07:00:40.724Z,65.10
2024-05-09T07:03:15.867Z,63.74
2024-05-09T07:05:46.256Z,64.34
2024-05-09T07:08:14.017Z,63.80
2024-05-09T07:10:41.036Z,63.77
2024-05-09T07:13:11.678Z,63.22
2024-05-09T07:15:38.917Z,63.00
2024-05-09T07:18:16.687Z,62.68
2024-05-09T07:20:45.339Z,62.84
2024-05-09T07:23:12.919Z,64.87
2024-05-09T07:25:40.914Z,64.49
2024-05-09T07:28:15.919Z,63.68
2024-05-09T07:30:42.932Z,63.96
2024-05-09T07:33:09.959Z,63.27
2024-05-09T07:35:36.855Z,64.24
2024-05-09T07:38:03.726Z,64.57
2024-05-09T07:40:35.897Z,65.07
2024-05-09T07:43:15.901Z,64.03
2024-05-09T07:45:51.354Z,63.88
2024-05-09T07:52:38.602Z,63.71
2024-05-09T07:53:46.937Z,63.86
2024-05-09T07:56:17.411Z,64.82
2024-05-09T07:58:45.758Z,63.70
2024-05-09T08:01:12.653Z,64.31
2024-05-09T08:03:39.607Z,63.81
2024-05-09T08:06:06.415Z,62.84
2024-05-09T08:08:33.109Z,62.46
2024-05-09T08:10:59.834Z,60.87
2024-05-09T08:13:26.538Z,61.06
2024-05-09T08:15:53.335Z,60.36
2024-05-09T08:18:20.345Z,61.01
2024-05-09T08:20:48.824Z,62.16
2024-05-09T08:23:15.831Z,63.68
2024-05-09T08:25:42.555Z,61.77
2024-05-09T08:28:10.916Z,62.92
2024-05-09T08:30:38.409Z,62.47
2024-05-09T08:33:06.934Z,59.36
2024-05-09T08:35:34.860Z,58.92
2024-05-09T08:38:03.716Z,59.45
2024-05-09T08:40:35.600Z,59.41
2024-05-09T08:43:08.224Z,57.25
2024-05-09T08:45:35.997Z,55.02
2024-05-09T08:48:05.885Z,54.20
2024-05-09T08:50:38.662Z,55.38
2024-05-09T08:53:07.981Z,54.24
2024-05-09T08:55:37.394Z,54.53
2024-05-09T08:58:07.372Z,55.35
2024-05-09T09:00:37.420Z,56.22
2024-05-09T09:03:08.715Z,54.63
2024-05-09T09:05:39.320Z,54.31
2024-05-09T09:08:08.130Z,55.42
2024-05-09T09:10:35.350Z,54.35
2024-05-09T09:13:04.213Z,53.11
2024-05-09T09:15:31.276Z,53.14
2024-05-09T09:18:01.720Z,52.45
2024-05-09T09:20:36.385Z,52.55
2024-05-09T09:23:04.566Z,52.18
2024-05-09T09:25:31.839Z,52.03
2024-05-09T09:27:59.190Z,51.83
2024-05-09T09:30:36.334Z,52.67
2024-05-09T09:33:06.252Z,51.08
2024-05-09T09:35:34.315Z,51.77
2024-05-09T09:38:02.983Z,52.08
2024-05-09T09:40:42.488Z,51.54
2024-05-09T09:43:23.049Z,51.09
2024-05-09T09:45:51.305Z,52.21
2024-05-09T09:48:20.281Z,50.50
2024-05-09T09:50:48.366Z,51.71
2024-05-09T09:53:16.414Z,49.23
2024-05-09T09:55:43.841Z,49.46
2024-05-09T09:58:13.452Z,50.42
2024-05-09T10:00:41.827Z,52.53
2024-05-09T10:03:09.127Z,51.38
2024-05-09T10:05:36.593Z,51.27
2024-05-09T10:08:07.260Z,51.56
2024-05-09T10:10:35.730Z,50.45
2024-05-09T10:13:07.499Z,50.86
2024-05-09T10:15:47.753Z,51.75
2024-05-09T10:18:15.258Z,51.27
2024-05-09T10:20:43.394Z,50.35
2024-05-09T10:23:27.790Z,49.48
2024-05-09T10:26:03.029Z,48.94
2024-05-09T10:28:35.327Z,50.08
2024-05-09T10:31:13.149Z,48.60
2024-05-09T10:33:52.639Z,48.14
2024-05-09T10:36:23.637Z,43.70
2024-05-09T10:38:52.482Z,43.69
2024-05-09T10:41:20.498Z,44.81
2024-05-09T10:43:47.983Z,45.40
2024-05-09T10:46:15.701Z,47.77
2024-05-09T10:48:43.882Z,45.91
2024-05-09T10:51:10.930Z,45.96
2024-05-09T10:53:42.519Z,44.76
2024-05-09T10:56:09.781Z,44.41
2024-05-09T10:58:37.275Z,45.29
2024-05-09T11:01:06.990Z,44.86
2024-05-09T11:03:35.338Z,45.75
2024-05-09T11:06:02.695Z,44.92
2024-05-09T11:08:31.794Z,45.25
2024-05-09T11:10:59.699Z,45.35
2024-05-09T11:13:27.196Z,44.98
2024-05-09T11:15:54.026Z,45.34
2024-05-09T11:18:25.449Z,47.56
2024-05-09T11:20:54.213Z,47.56
2024-05-09T11:23:22.805Z,48.92
2024-05-09T11:25:53.434Z,49.73
2024-05-09T11:28:21.082Z,50.15
2024-05-09T11:30:48.846Z,50.24
2024-05-09T11:33:17.197Z,51.50
2024-05-09T11:35:44.727Z,51.82
2024-05-09T11:38:11.688Z,49.65
2024-05-09T11:40:38.813Z,49.11
2024-05-09T11:43:06.003Z,48.94
2024-05-09T11:45:32.962Z,50.81
2024-05-09T11:47:59.909Z,49.99
2024-05-09T11:50:32.735Z,49.85
2024-05-09T11:53:02.313Z,49.84
2024-05-09T11:55:29.179Z,48.93
2024-05-09T11:57:56.780Z,49.86
2024-05-09T12:02:54.229Z,51.57
2024-05-09T12:05:21.105Z,49.16
2024-05-09T12:07:48.000Z,49.19
2024-05-09T12:10:19.631Z,50.81
2024-05-09T12:12:49.285Z,50.69
2024-05-09T12:15:16.067Z,51.59
2024-05-09T12:17:42.948Z,52.68
2024-05-09T12:20:17.505Z,51.90
2024-05-09T12:22:52.883Z,50.17
2024-05-09T12:25:19.658Z,51.00
2024-05-09T12:27:46.369Z,51.16
2024-05-09T12:30:20.714Z,51.19
2024-05-09T12:32:55.184Z,50.43
2024-05-09T12:35:21.929Z,50.50
2024-05-09T12:37:48.566Z,50.63
2024-05-09T12:40:22.954Z,51.24
2024-05-09T12:42:58.176Z,50.46
2024-05-09T12:45:24.909Z,50.72
2024-05-09T12:47:51.701Z,49.94
2024-05-09T12:50:25.244Z,50.18
2024-05-09T12:52:58.229Z,51.61
2024-05-09T12:55:25.010Z,51.91
2024-05-09T12:57:51.768Z,51.19
2024-05-09T13:00:24.045Z,50.27
2024-05-09T13:02:57.935Z,51.11
2024-05-09T13:05:24.843Z,51.15
2024-05-09T13:07:51.652Z,51.08
2024-05-09T13:10:28.664Z,51.42
2024-05-09T13:12:59.439Z,52.77
2024-05-09T13:15:26.485Z,52.05
2024-05-09T13:17:54.105Z,51.19
2024-05-09T13:20:29.260Z,50.38
2024-05-09T13:23:01.864Z,49.92
2024-05-09T13:25:28.694Z,50.19
2024-05-09T13:27:56.424Z,50.83
2024-05-09T13:30:29.774Z,50.26
2024-05-09T13:33:06.577Z,52.05
2024-05-09T13:35:35.190Z,50.95
2024-05-09T13:38:02.929Z,51.02
2024-05-09T13:40:34.199Z,51.54
2024-05-09T13:43:04.558Z,51.60
2024-05-09T13:45:31.684Z,52.57
2024-05-09T13:47:58.862Z,52.62
2024-05-09T13:50:32.893Z,52.51
2024-05-09T13:53:02.704Z,51.90
2024-05-09T13:55:29.544Z,52.79
2024-05-09T13:57:56.633Z,53.28
2024-05-09T14:00:37.753Z,53.73
2024-05-09T14:03:10.489Z,51.99
2024-05-09T14:05:37.412Z,51.02
2024-05-09T14:08:04.653Z,52.35
2024-05-09T14:10:32.447Z,52.13
2024-05-09T14:13:01.050Z,53.00
2024-05-09T14:15:28.122Z,53.53
2024-05-09T14:17:55.470Z,53.20
2024-05-09T14:20:30.454Z,53.15
2024-05-09T14:23:01.925Z,53.61
2024-05-09T14:25:30.130Z,53.64
2024-05-09T14:28:00.270Z,53.53
2024-05-09T14:30:34.742Z,54.07
2024-05-09T14:33:05.905Z,54.79
2024-05-09T14:35:33.611Z,55.49
2024-05-09T14:38:00.484Z,55.16
2024-05-09T14:40:37.170Z,55.60
2024-05-09T14:43:10.347Z,55.30
2024-05-09T14:45:37.392Z,56.19
2024-05-09T14:48:04.708Z,56.20
2024-05-09T14:50:36.806Z,56.91
2024-05-09T14:53:07.633Z,56.91
2024-05-09T14:55:37.357Z,56.28
2024-05-09T14:58:09.711Z,57.42
2024-05-09T15:00:46.072Z,56.58
2024-05-09T15:03:17.399Z,57.03
2024-05-09T15:05:45.070Z,56.16
2024-05-09T15:08:11.949Z,57.06
2024-05-09T15:10:39.099Z,57.06
2024-05-09T15:13:07.891Z,57.43
2024-05-09T15:15:36.944Z,56.56
2024-05-09T15:18:04.859Z,56.46
2024-05-09T15:20:35.873Z,56.09
2024-05-09T15:23:06.229Z,56.10
2024-05-09T15:25:34.010Z,55.30
2024-05-09T15:28:00.899Z,55.90
2024-05-09T15:30:31.067Z,56.22
2024-05-09T15:33:00.758Z,56.00
2024-05-09T15:35:27.915Z,57.18
2024-05-09T15:37:54.944Z,56.93
2024-05-09T15:40:31.010Z,57.56
2024-05-09T15:43:05.373Z,57.02
2024-05-09T15:45:32.628Z,56.76
2024-05-09T15:48:00.017Z,56.01
2024-05-09T15:50:35.727Z,55.97
2024-05-09T15:53:07.018Z,56.21
2024-05-09T15:55:34.857Z,56.51
2024-05-09T15:58:02.679Z,57.57
2024-05-09T16:00:37.374Z,56.16
2024-05-09T16:03:08.465Z,56.27
2024-05-09T16:05:36.632Z,56.19
2024-05-09T16:08:03.991Z,55.99
2024-05-09T16:10:33.136Z,56.55
2024-05-09T16:13:01.789Z,55.58
2024-05-09T16:15:28.982Z,55.71
2024-05-09T16:17:56.130Z,56.48
2024-05-09T16:20:34.202Z,56.45
2024-05-09T16:23:06.409Z,56.93
2024-05-09T16:25:33.290Z,57.13
2024-05-09T16:28:00.218Z,57.63
2024-05-09T16:30:31.916Z,57.46
2024-05-09T16:33:03.192Z,57.91
2024-05-09T16:35:30.360Z,56.96
2024-05-09T16:37:57.349Z,57.44
2024-05-09T16:40:33.178Z,56.70
2024-05-09T16:43:04.982Z,56.12
2024-05-09T16:45:31.990Z,55.69
2024-05-09T16:47:59.712Z,55.68
2024-05-09T16:50:32.371Z,55.58
2024-05-09T16:53:01.793Z,55.12
2024-05-09T16:55:31.035Z,54.93
2024-05-09T16:57:58.341Z,55.26
2024-05-09T17:00:35.595Z,55.56
2024-05-09T17:03:09.639Z,56.22
2024-05-09T17:05:37.135Z,55.80
2024-05-09T17:08:04.390Z,55.95
2024-05-09T17:10:33.817Z,56.07
2024-05-09T17:13:06.708Z,56.37
2024-05-09T17:15:35.282Z,56.75
2024-05-09T17:18:02.591Z,56.34
2024-05-09T17:20:33.890Z,56.64
2024-05-09T17:23:04.563Z,57.13
2024-05-09T17:25:31.941Z,56.99
2024-05-09T17:28:05.317Z,57.33
2024-05-09T17:30:36.588Z,57.47
2024-05-09T17:33:06.071Z,57.12
2024-05-09T17:35:32.939Z,57.21
2024-05-09T17:38:01.404Z,57.81
2024-05-09T17:40:33.460Z,57.65
2024-05-09T17:43:04.177Z,58.61
2024-05-09T17:45:31.945Z,58.10
2024-05-09T17:47:59.457Z,58.04
2024-05-09T17:50:31.904Z,58.79
2024-05-09T17:53:03.543Z,58.62
2024-05-09T17:55:30.477Z,58.41
2024-05-09T17:57:57.471Z,58.44
2024-05-09T18:00:33.744Z,58.42
2024-05-09T18:03:06.233Z,58.67
2024-05-09T18:05:37.611Z,58.60
2024-05-09T18:08:06.280Z,59.15
2024-05-09T18:10:37.189Z,59.57
2024-05-09T18:13:11.144Z,59.13
2024-05-09T18:15:38.900Z,58.62
2024-05-09T18:18:06.604Z,58.07
2024-05-09T18:20:41.606Z,58.13
2024-05-09T18:23:13.141Z,57.48
2024-05-09T18:25:40.363Z,57.93
2024-05-09T18:28:07.778Z,57.67
2024-05-09T18:30:36.525Z,58.24
2024-05-09T18:33:06.416Z,58.08
2024-05-09T18:35:37.007Z,58.54
2024-05-09T18:38:04.691Z,58.75
2024-05-09T18:40:35.353Z,58.89
2024-05-09T18:43:07.406Z,59.13
2024-05-09T18:45:39.474Z,59.92
2024-05-09T18:48:08.184Z,59.71
2024-05-09T18:50:39.165Z,60.36
2024-05-09T18:53:10.077Z,60.68
2024-05-09T18:55:37.163Z,60.93
2024-05-09T18:58:04.989Z,61.15
2024-05-09T19:00:36.230Z,61.43
2024-05-09T19:03:11.830Z,61.44
2024-05-09T19:05:41.690Z,62.42
2024-05-09T19:08:09.431Z,62.54
2024-05-09T19:10:38.375Z,62.71
2024-05-09T19:13:09.234Z,62.31
2024-05-09T19:15:40.378Z,62.83
2024-05-09T19:18:07.835Z,62.96
2024-05-09T19:20:36.465Z,63.09
2024-05-09T19:23:05.390Z,63.21
2024-05-09T19:25:32.915Z,63.43
2024-05-09T19:28:00.311Z,63.47
2024-05-09T19:30:36.548Z,62.94
2024-05-09T19:33:07.902Z,64.01
2024-05-09T19:35:34.783Z,64.02
2024-05-09T19:38:01.958Z,64.26
2024-05-09T19:40:31.985Z,64.13
2024-05-09T19:43:05.113Z,64.37
2024-05-09T19:45:33.899Z,64.43
2024-05-09T19:48:01.867Z,64.27
2024-05-09T19:50:37.014Z,64.16
2024-05-09T19:53:09.701Z,63.94
2024-05-09T19:55:36.729Z,64.34
2024-05-09T19:58:05.440Z,64.25
2024-05-09T20:00:39.840Z,64.31
2024-05-09T20:03:09.614Z,64.55
2024-05-09T20:05:37.594Z,64.94
2024-05-09T20:08:05.729Z,64.71
2024-05-09T20:10:35.029Z,64.67
2024-05-09T20:13:04.604Z,65.32
2024-05-09T20:15:33.644Z,65.37
2024-05-09T20:18:00.578Z,65.65
2024-05-09T20:20:35.544Z,66.12
2024-05-09T20:23:06.371Z,66.40
2024-05-09T20:25:33.262Z,66.18
2024-05-09T20:28:00.740Z,65.97
2024-05-09T20:30:32.193Z,65.58
2024-05-09T20:33:02.959Z,66.52
2024-05-09T20:35:32.594Z,66.39
2024-05-09T20:38:00.822Z,66.91
2024-05-09T20:40:32.687Z,66.61
2024-05-09T20:43:03.176Z,66.88
2024-05-09T20:45:30.080Z,66.95
2024-05-09T20:47:57.314Z,67.27
2024-05-09T20:50:35.092Z,67.73
2024-05-09T20:53:05.850Z,66.90
2024-05-09T20:55:32.598Z,66.81
2024-05-09T20:57:59.384Z,66.75
2024-05-09T21:00:34.879Z,67.47
2024-05-09T21:03:07.208Z,66.98
2024-05-09T21:05:35.185Z,67.18
2024-05-09T21:08:02.584Z,66.85
2024-05-09T21:10:32.933Z,66.54
2024-05-09T21:13:02.857Z,66.34
2024-05-09T21:15:30.356Z,66.22
2024-05-09T21:17:57.092Z,65.89
2024-05-09T21:20:30.502Z,66.20
2024-05-09T21:22:58.965Z,65.94
2024-05-09T21:25:25.902Z,66.40
2024-05-09T21:27:53.225Z,66.50
2024-05-09T21:32:51.026Z,67.14
2024-05-09T21:35:18.465Z,67.40
2024-05-09T21:37:45.210Z,67.80
2024-05-09T21:40:16.965Z,67.90
2024-05-09T21:42:50.843Z,67.49
2024-05-09T21:45:17.609Z,67.78
2024-05-09T21:47:44.550Z,67.93
2024-05-09T21:50:22.055Z,67.88
2024-05-09T21:52:50.186Z,68.04
2024-05-09T21:55:16.948Z,67.54
2024-05-09T21:57:43.651Z,67.62
2024-05-09T22:00:27.933Z,68.23
2024-05-09T22:03:02.001Z,68.17
2024-05-09T22:05:29.060Z,68.30
2024-05-09T22:07:56.435Z,68.26
2024-05-09T22:10:27.183Z,68.42
2024-05-09T22:13:00.149Z,68.48
2024-05-09T22:15:27.064Z,68.20
2024-05-09T22:17:54.949Z,68.25
2024-05-09T22:20:28.986Z,69.10
2024-05-09T22:23:02.753Z,68.52
2024-05-09T22:25:31.042Z,68.76
2024-05-09T22:27:58.968Z,68.73
2024-05-09T22:30:34.351Z,68.89
2024-05-09T22:33:05.851Z,68.59
2024-05-09T22:35:33.078Z,69.37
2024-05-09T22:37:59.911Z,69.33
2024-05-09T22:40:38.195Z,69.08
2024-05-09T22:43:13.329Z,69.80
2024-05-09T22:45:40.320Z,69.60
2024-05-09T22:48:08.246Z,70.06
2024-05-09T22:50:35.236Z,70.19
2024-05-09T22:53:02.055Z,70.10
2024-05-09T22:55:28.985Z,70.36
2024-05-09T22:57:56.075Z,70.36
2024-05-09T23:00:31.435Z,70.85
2024-05-09T23:03:03.646Z,71.09
2024-05-09T23:05:39.108Z,71.22
2024-05-09T23:08:06.179Z,70.77
2024-05-09T23:10:36.660Z,70.80
2024-05-09T23:13:06.841Z,70.82
2024-05-09T23:15:37.233Z,70.74
2024-05-09T23:18:05.194Z,70.67
2024-05-09T23:20:37.488Z,71.46
2024-05-09T23:23:07.523Z,71.18
2024-05-09T23:25:36.808Z,71.42
2024-05-09T23:28:04.227Z,71.33
2024-05-09T23:30:38.609Z,71.46
2024-05-09T23:33:10.356Z,71.73
2024-05-09T23:35:38.613Z,71.47
2024-05-09T23:38:08.950Z,71.46
2024-05-09T23:40:39.720Z,71.96
2024-05-09T23:43:10.641Z,72.62
2024-05-09T23:45:38.751Z,72.16
2024-05-09T23:48:06.251Z,72.20
2024-05-09T23:50:36.537Z,72.71
2024-05-09T23:53:07.785Z,72.36
2024-05-09T23:55:35.908Z,73.15
2024-05-09T23:58:05.801Z,72.83
